Thursday, December 12, 2019, 10:41 PM GMT
Back to Local

CWIT, Saint Clothilde Automated Reporting Station

Location: , , Canada Lat: 45.167
Local Time: 10:41 PM GMT (22:41 GMT) Lon: -73.683
Time Zone: GMT Elev: 170 ft

Show me the last for .
Show Decoded

2019-12-12 22:00 METAR CWIT 122200Z AUTO 15005KT M05/M12 RMK AO1 SOG 02 5002 SLP364 T10531117 =
2019-12-12 21:00 METAR CWIT 122100Z AUTO 14003KT M05/M11 RMK AO1 SOG 02 6010 SLP361 T10511111 =
2019-12-12 20:00 METAR CWIT 122000Z AUTO 24001KT M04/M13 RMK AO1 SOG 02 6011 SLP364 T10351132 =
2019-12-12 19:00 METAR CWIT 121900Z AUTO 23004KT M05/M14 RMK AO1 SOG 03 6018 SLP366 T10471135 =
2019-12-12 18:00 METAR CWIT 121800Z AUTO 22005KT M05/M14 RMK AO1 SOG 03 8014 SLP371 T10501144 =
2019-12-12 17:00 METAR CWIT 121700Z AUTO 24005KT M06/M16 RMK AO1 SOG 02 8001 SLP375 T10571155 =
2019-12-12 16:00 METAR CWIT 121600Z AUTO 26006KT M06/M16 RMK AO1 SOG 03 0023 SLP384 T10631162 =
2019-12-12 15:00 METAR CWIT 121500Z AUTO 28006KT M07/M16 RMK AO1 SOG 03 1036 SLP385 T10681158 =
2019-12-12 14:00 METAR CWIT 121400Z AUTO 28006KT M08/M15 RMK AO1 SOG 03 3038 SLP376 T10781150 =
2019-12-12 13:00 METAR CWIT 121300Z AUTO 29006KT M09/M16 RMK AO1 SOG 03 3034 SLP361 T10871156 =
2019-12-12 12:00 METAR CWIT 121200Z AUTO 31005KT M09/M15 RMK AO1 SOG 03 3028 SLP349 T10871151 =
2019-12-12 11:00 METAR CWIT 121100Z AUTO 29008KT M08/M16 RMK AO1 SOG 03 3022 SLP337 T10771157 =
2019-12-12 10:00 METAR CWIT 121000Z AUTO 28006KT M08/M15 RMK AO1 SOG 03 2017 SLP326 T10781146 =
2019-12-12 09:00 METAR CWIT 120900Z AUTO 25003KT M09/M16 RMK AO1 SOG 03 1023 SLP320 T10881161 =
2019-12-12 08:00 METAR CWIT 120800Z AUTO 27004KT M08/M17 RMK AO1 SOG 03 1029 SLP315 T10831169 =
2019-12-12 07:00 METAR CWIT 120700Z AUTO 27005KT M08/M17 RMK AO1 SOG 03 1036 SLP309 T10831171 =
2019-12-12 06:00 METAR CWIT 120600Z AUTO 28008G18KT M08/M16 RMK AO1 SOG 03 1042 PK WND 27018/0552
                 SLP297 T10801155 =
2019-12-12 05:00 METAR CWIT 120500Z AUTO 28009G15KT M07/M14 RMK AO1 SOG 03 1052 PK WND 27020/0411
                 SLP286 T10721135 =
2019-12-12 04:00 METAR CWIT 120400Z AUTO 27009G17KT M07/M14 RMK AO1 SOG 04 3052 PK WND 28020/0321
                 SLP273 T10671140 =
2019-12-12 03:00 METAR CWIT 120300Z AUTO 30011G23KT M06/M14 RMK AO1 PRESRR SOG 04 3050 PK WND
                 29023/0208 SLP255 T10601137 =
2019-12-12 02:00 METAR CWIT 120200Z AUTO 27010G20KT M04/M10 RMK AO1 SOG 05 3037 PK WND 26020/0152
                 SLP234 T10441104 =
2019-12-12 01:00 METAR CWIT 120100Z AUTO 28011G22KT M04/M09 RMK AO1 SOG 05 3031 PK WND 29022/0053
                 SLP221 T10411086 =
2019-12-12 00:00 METAR CWIT 120000Z AUTO 25008KT M03/M08 RMK AO1 SOG 05 3019 PK WND 27022/2311
                 SLP205 T10251084 50017 =
2019-12-11 23:00 METAR CWIT 112300Z AUTO 24008G20KT M03/M07 RMK AO1 0PAST HR SOG 04 3016 PK WND
                 26020/2258 SLP197 P0004 T10321067 50017 =

Support USWX by starting your Amazon purchase here.